Pinos Altos, New Mexico
Current Conditions -  °F | °C
As of 5:55 AM on Monday 22 Dec 2014 (Local Time) from KSVC Reporting Station
Clear Clear  
Wind Chill: -1°   Ceiling: Unl
Heat Index:   Visibility: 10mi
Dew Point: -1°   Wind: 12mph
Humidity: 75%   Direction: 320°NW
Pressure: 29.99"   Gusts: NA
Location:  32.87°N, 108.22°W
Report Text: KSVC 221255Z AUTO 32010KT 10SM CLR 03/M01 A2999 RMK AO2
Loading
Personal Weather Stations






























Interactive Weather Map New forecast layout! Learn more

10-Day Weather Forecast

Advertisements
Track Severe Weather on mobile